createdAt,value
2018-06-05T00:01:55.352Z,91.30
2018-06-05T00:04:28.094Z,91.60
2018-06-05T00:07:00.707Z,91.60
2018-06-05T00:09:33.802Z,91.70
2018-06-05T00:12:06.601Z,91.80
2018-06-05T00:14:39.198Z,91.80
2018-06-05T00:17:12.066Z,91.80
2018-06-05T00:19:44.971Z,91.80
2018-06-05T00:24:50.094Z,92.00
2018-06-05T00:27:22.518Z,92.00
2018-06-05T00:32:28.142Z,92.10
2018-06-05T00:35:00.638Z,92.50
2018-06-05T00:42:39.648Z,93.30
2018-06-05T00:45:12.090Z,93.00
2018-06-05T00:47:44.825Z,93.00
2018-06-05T00:50:17.711Z,92.80
2018-06-05T00:52:50.474Z,92.80
2018-06-05T00:57:55.848Z,93.40
2018-06-05T01:00:28.418Z,93.00
2018-06-05T01:03:01.361Z,93.30
2018-06-05T01:05:33.952Z,93.00
2018-06-05T01:08:06.439Z,93.10
2018-06-05T01:10:39.147Z,93.00
2018-06-05T01:13:11.882Z,93.20
2018-06-05T01:15:44.585Z,93.20
2018-06-05T01:18:17.400Z,93.30
2018-06-05T01:20:49.813Z,93.30
2018-06-05T01:23:22.201Z,93.30
2018-06-05T01:25:58.024Z,93.30
2018-06-05T01:28:30.586Z,93.30
2018-06-05T01:31:03.017Z,93.30
2018-06-05T01:33:35.489Z,93.40
2018-06-05T01:36:07.926Z,93.20
2018-06-05T01:38:40.306Z,93.40
2018-06-05T01:41:12.848Z,93.30
2018-06-05T01:43:45.232Z,93.30
2018-06-05T01:46:17.758Z,93.20
2018-06-05T01:48:50.453Z,93.20
2018-06-05T01:51:22.890Z,93.20
2018-06-05T01:53:55.469Z,93.20
2018-06-05T01:56:28.129Z,93.30
2018-06-05T01:59:00.590Z,93.30
2018-06-05T02:01:33.275Z,93.30
2018-06-05T02:04:05.674Z,93.40
2018-06-05T02:06:38.244Z,93.80
2018-06-05T02:09:10.642Z,93.30
2018-06-05T02:11:43.048Z,93.30
2018-06-05T02:14:15.469Z,93.10
2018-06-05T02:16:47.907Z,93.20
2018-06-05T02:19:20.569Z,93.40
2018-06-05T02:21:53.014Z,93.50
2018-06-05T02:24:25.439Z,93.70
2018-06-05T02:26:57.904Z,94.00
2018-06-05T02:29:30.438Z,93.50
2018-06-05T02:32:03.570Z,93.30
2018-06-05T02:34:35.982Z,93.20
2018-06-05T02:39:41.018Z,93.10
2018-06-05T02:42:13.458Z,93.10
2018-06-05T02:44:46.029Z,93.00
2018-06-05T02:47:20.854Z,93.20
2018-06-05T02:49:53.301Z,93.10
2018-06-05T02:52:25.792Z,93.20
2018-06-05T02:54:58.286Z,93.10
2018-06-05T02:57:30.768Z,93.20
2018-06-05T03:00:03.973Z,93.20
2018-06-05T03:02:36.450Z,92.90
2018-06-05T03:05:09.254Z,93.20
2018-06-05T03:07:41.756Z,92.80
2018-06-05T03:10:14.258Z,92.70
2018-06-05T03:12:46.825Z,92.90
2018-06-05T03:15:19.898Z,92.90
2018-06-05T03:20:24.741Z,92.70
2018-06-05T03:22:57.205Z,92.80
2018-06-05T03:25:29.681Z,92.70
2018-06-05T03:28:02.226Z,92.60
2018-06-05T03:30:34.739Z,92.50
2018-06-05T03:33:07.324Z,92.30
2018-06-05T03:35:40.002Z,92.30
2018-06-05T03:38:12.446Z,92.40
2018-06-05T03:43:17.375Z,92.30
2018-06-05T03:48:22.209Z,91.90
2018-06-05T03:50:54.654Z,92.20
2018-06-05T03:53:27.072Z,92.00
2018-06-05T03:55:59.541Z,92.20
2018-06-05T03:58:32.093Z,92.10
2018-06-05T04:01:06.578Z,92.10
2018-06-05T04:03:39.182Z,92.30
2018-06-05T04:06:11.663Z,92.30
2018-06-05T04:08:44.715Z,92.30
2018-06-05T04:11:17.195Z,92.30
2018-06-05T04:16:22.087Z,91.80
2018-06-05T04:18:54.944Z,92.20
2018-06-05T04:21:27.419Z,92.30
2018-06-05T04:23:59.977Z,92.00
2018-06-05T04:26:32.356Z,91.90
2018-06-05T04:29:04.810Z,91.70
2018-06-05T04:31:37.373Z,92.10
2018-06-05T04:34:10.153Z,92.00
2018-06-05T04:36:42.604Z,92.10
2018-06-05T04:39:15.121Z,91.80
2018-06-05T04:41:47.590Z,91.70
2018-06-05T04:44:20.034Z,91.90
2018-06-05T04:46:52.867Z,91.90
2018-06-05T04:49:25.628Z,91.70
2018-06-05T04:51:58.094Z,91.70
2018-06-05T04:54:30.627Z,91.90
2018-06-05T04:57:03.075Z,91.50
2018-06-05T04:59:35.581Z,91.50
2018-06-05T05:02:08.032Z,91.40
2018-06-05T05:04:40.416Z,91.30
2018-06-05T05:07:13.136Z,91.50
2018-06-05T05:09:46.726Z,91.60
2018-06-05T05:12:19.389Z,91.40
2018-06-05T05:14:51.913Z,90.80
2018-06-05T05:17:24.780Z,91.00
2018-06-05T05:19:57.418Z,91.10
2018-06-05T05:22:29.997Z,91.10
2018-06-05T05:25:02.589Z,91.10
2018-06-05T05:27:35.020Z,90.90
2018-06-05T05:30:07.470Z,90.60
2018-06-05T05:32:39.982Z,90.80
2018-06-05T05:37:44.851Z,90.50
2018-06-05T05:40:17.698Z,90.70
2018-06-05T05:42:50.081Z,90.70
2018-06-05T05:45:22.741Z,90.70
2018-06-05T05:47:55.249Z,90.80
2018-06-05T05:50:28.075Z,90.80
2018-06-05T05:53:00.550Z,90.60
2018-06-05T05:55:32.978Z,90.70
2018-06-05T05:58:05.445Z,90.60
2018-06-05T06:00:38.073Z,90.60
2018-06-05T06:05:43.327Z,90.40
2018-06-05T06:08:15.839Z,90.40
2018-06-05T06:10:48.646Z,90.70
2018-06-05T06:15:53.984Z,90.60
2018-06-05T06:18:26.448Z,90.60
2018-06-05T06:23:31.499Z,90.90
2018-06-05T06:28:36.466Z,91.00
2018-06-05T06:31:09.082Z,90.50
2018-06-05T06:33:41.772Z,90.50
2018-06-05T06:38:47.272Z,90.80
2018-06-05T06:41:20.110Z,90.60
2018-06-05T06:43:52.703Z,90.50
2018-06-05T06:46:25.406Z,90.40
2018-06-05T06:48:58.060Z,90.30
2018-06-05T06:51:32.560Z,90.20
2018-06-05T06:54:05.025Z,90.30
2018-06-05T06:56:37.676Z,89.80
2018-06-05T06:59:11.065Z,89.80
2018-06-05T07:01:44.819Z,89.60
2018-06-05T07:04:17.516Z,89.80
2018-06-05T07:06:50.502Z,89.80
2018-06-05T07:09:22.946Z,89.60
2018-06-05T07:11:55.413Z,89.30
2018-06-05T07:14:28.064Z,89.20
2018-06-05T07:17:01.208Z,89.00
2018-06-05T07:19:33.821Z,88.90
2018-06-05T07:22:06.371Z,89.00
2018-06-05T07:27:11.645Z,89.20
2018-06-05T07:29:44.155Z,88.80
2018-06-05T07:32:17.374Z,88.10
2018-06-05T07:34:50.129Z,88.50
2018-06-05T07:37:22.825Z,88.30
2018-06-05T07:42:27.730Z,87.60
2018-06-05T07:45:00.285Z,87.50
2018-06-05T07:47:33.075Z,87.90
2018-06-05T07:50:05.814Z,87.80
2018-06-05T07:52:38.573Z,87.70
2018-06-05T07:55:11.149Z,87.90
2018-06-05T07:57:43.787Z,87.50
2018-06-05T08:00:16.210Z,87.10
2018-06-05T08:02:49.525Z,87.50
2018-06-05T08:05:22.026Z,87.60
2018-06-05T08:07:54.740Z,87.60
2018-06-05T08:10:27.503Z,88.20
2018-06-05T08:13:00.142Z,88.10
2018-06-05T08:20:37.673Z,88.50
2018-06-05T08:23:10.198Z,87.70
2018-06-05T08:25:42.640Z,87.80
2018-06-05T08:28:15.146Z,87.70
2018-06-05T08:30:47.726Z,87.70
2018-06-05T08:33:20.278Z,87.80
2018-06-05T08:35:53.231Z,87.60
2018-06-05T08:38:25.985Z,87.10
2018-06-05T08:43:31.260Z,87.10
2018-06-05T08:46:04.025Z,87.40
2018-06-05T08:48:37.258Z,87.80
2018-06-05T08:51:10.135Z,87.50
2018-06-05T08:53:42.822Z,88.10
2018-06-05T08:56:15.511Z,87.90
2018-06-05T08:58:49.083Z,88.80
2018-06-05T09:01:21.707Z,87.40
2018-06-05T09:03:54.355Z,87.60
2018-06-05T09:06:26.989Z,87.00
2018-06-05T09:09:00.435Z,87.50
2018-06-05T09:11:33.355Z,87.30
2018-06-05T09:14:06.655Z,87.50
2018-06-05T09:16:39.374Z,87.30
2018-06-05T09:19:13.503Z,86.90
2018-06-05T09:21:47.708Z,86.60
2018-06-05T09:24:21.618Z,87.10
2018-06-05T09:26:55.581Z,87.60
2018-06-05T09:29:29.928Z,86.90
2018-06-05T09:32:02.826Z,86.40
2018-06-05T09:34:35.809Z,86.30
2018-06-05T09:37:08.348Z,87.30
2018-06-05T09:39:41.162Z,86.80
2018-06-05T09:42:13.794Z,86.30
2018-06-05T09:44:46.392Z,86.20
2018-06-05T09:47:19.055Z,86.30
2018-06-05T09:49:52.364Z,86.50
2018-06-05T09:52:25.121Z,85.20
2018-06-05T09:54:57.793Z,84.70
2018-06-05T09:57:30.634Z,84.60
2018-06-05T10:02:40.706Z,87.10
2018-06-05T10:07:46.905Z,86.30
2018-06-05T10:10:20.404Z,85.90
2018-06-05T10:12:53.541Z,85.90
2018-06-05T10:15:26.928Z,86.00
2018-06-05T10:17:59.647Z,86.70
2018-06-05T10:20:33.048Z,86.70
2018-06-05T10:23:06.404Z,86.30
2018-06-05T10:25:39.170Z,86.30
2018-06-05T10:28:11.838Z,86.30
2018-06-05T10:30:44.375Z,86.40
2018-06-05T10:33:17.555Z,85.70
2018-06-05T10:35:51.049Z,85.70
2018-06-05T10:38:23.666Z,86.00
2018-06-05T10:40:57.339Z,85.70
2018-06-05T10:43:30.744Z,85.80
2018-06-05T10:46:03.918Z,86.10
2018-06-05T10:48:36.664Z,86.60
2018-06-05T10:51:09.337Z,86.50
2018-06-05T10:53:42.170Z,85.60
2018-06-05T10:56:16.378Z,85.80
2018-06-05T10:58:49.764Z,86.10
2018-06-05T11:01:22.369Z,85.40
2018-06-05T11:03:54.887Z,85.60
2018-06-05T11:06:27.360Z,85.40
2018-06-05T11:09:00.074Z,84.60
2018-06-05T11:11:32.971Z,83.90
2018-06-05T11:14:05.641Z,83.40
2018-06-05T11:16:41.596Z,84.40
2018-06-05T11:19:14.812Z,83.90
2018-06-05T11:24:21.028Z,83.60
2018-06-05T11:26:53.796Z,82.90
2018-06-05T11:29:26.313Z,82.20
2018-06-05T11:31:58.969Z,82.40
2018-06-05T11:34:31.700Z,81.50
2018-06-05T11:37:04.422Z,81.90
2018-06-05T11:39:41.229Z,80.80
2018-06-05T11:42:13.996Z,81.50
2018-06-05T11:44:47.346Z,80.30
2018-06-05T11:47:19.972Z,79.20
2018-06-05T11:49:53.214Z,77.90
2018-06-05T11:52:25.743Z,78.30
2018-06-05T11:54:58.446Z,78.40
2018-06-05T11:57:31.377Z,78.10
2018-06-05T12:00:04.654Z,78.90
2018-06-05T12:02:37.279Z,78.70
2018-06-05T12:05:10.713Z,77.90
2018-06-05T12:07:49.316Z,78.20
2018-06-05T12:10:21.826Z,76.70
2018-06-05T12:12:54.351Z,76.80
2018-06-05T12:15:27.384Z,75.90
2018-06-05T12:20:32.863Z,77.80
2018-06-05T12:23:06.240Z,77.10
2018-06-05T12:25:39.018Z,77.30
2018-06-05T12:28:11.552Z,76.40
2018-06-05T12:30:44.089Z,76.10
2018-06-05T12:33:17.995Z,75.60
2018-06-05T12:35:50.771Z,74.90
2018-06-05T12:38:23.694Z,74.90
2018-06-05T12:40:56.496Z,74.20
2018-06-05T12:43:29.214Z,73.20
2018-06-05T12:46:06.441Z,73.70
2018-06-05T12:48:39.107Z,74.40
2018-06-05T12:51:16.130Z,73.40
2018-06-05T12:53:49.051Z,71.60
2018-06-05T12:56:21.969Z,72.80
2018-06-05T12:58:55.368Z,73.30
2018-06-05T13:01:27.824Z,72.80
2018-06-05T13:04:01.608Z,70.50
2018-06-05T13:06:34.237Z,70.10
2018-06-05T13:09:08.138Z,70.70
2018-06-05T13:11:40.807Z,73.60
2018-06-05T13:14:13.698Z,74.20
2018-06-05T13:16:47.104Z,74.60
2018-06-05T13:19:21.683Z,74.20
2018-06-05T13:21:56.579Z,73.30
2018-06-05T13:24:29.875Z,74.60
2018-06-05T13:27:04.783Z,74.40
2018-06-05T13:29:37.601Z,73.60
2018-06-05T13:32:10.221Z,74.20
2018-06-05T13:34:42.732Z,74.00
2018-06-05T13:37:15.335Z,74.40
2018-06-05T13:39:48.057Z,74.40
2018-06-05T13:42:20.698Z,75.20
2018-06-05T13:44:53.516Z,74.90
2018-06-05T13:47:26.208Z,74.90
2018-06-05T13:49:58.880Z,75.20
2018-06-05T13:52:31.540Z,75.20
2018-06-05T13:55:04.473Z,75.00
2018-06-05T13:57:37.067Z,75.60
2018-06-05T14:00:13.497Z,75.30
2018-06-05T14:02:46.200Z,75.80
2018-06-05T14:05:18.993Z,76.20
2018-06-05T14:07:51.585Z,75.80
2018-06-05T14:10:24.266Z,76.50
2018-06-05T14:12:56.914Z,76.60
2018-06-05T14:15:29.555Z,76.40
2018-06-05T14:18:02.234Z,75.60
2018-06-05T14:20:35.372Z,75.50
2018-06-05T14:23:07.869Z,75.80
2018-06-05T14:25:40.467Z,75.80
2018-06-05T14:28:13.544Z,76.80
2018-06-05T14:30:46.654Z,76.00
2018-06-05T14:33:19.945Z,75.10
2018-06-05T14:35:53.215Z,75.40
2018-06-05T14:38:26.385Z,75.00
2018-06-05T14:40:59.214Z,75.50
2018-06-05T14:43:33.242Z,75.40
2018-06-05T14:46:06.161Z,74.80
2018-06-05T14:48:39.324Z,74.50
2018-06-05T14:51:12.168Z,74.70
2018-06-05T14:53:46.375Z,74.70
2018-06-05T14:56:18.937Z,73.30
2018-06-05T14:58:51.494Z,71.90
2018-06-05T15:01:24.070Z,72.10
2018-06-05T15:03:56.489Z,72.40
2018-06-05T15:06:29.107Z,73.30
2018-06-05T15:09:02.255Z,72.80
2018-06-05T15:11:34.726Z,72.50
2018-06-05T15:14:07.449Z,72.20
2018-06-05T15:16:39.971Z,71.70
2018-06-05T15:19:12.485Z,71.70
2018-06-05T15:21:45.364Z,72.30
2018-06-05T15:24:18.271Z,71.80
2018-06-05T15:29:23.365Z,72.70
2018-06-05T15:31:55.791Z,71.60
2018-06-05T15:34:28.567Z,71.10
2018-06-05T15:37:01.103Z,71.90
2018-06-05T15:39:33.622Z,71.50
2018-06-05T15:42:06.263Z,71.30
2018-06-05T15:44:38.734Z,70.20
2018-06-05T15:47:11.150Z,70.10
2018-06-05T15:49:44.139Z,70.90
2018-06-05T15:52:16.573Z,70.70
2018-06-05T15:54:49.127Z,71.10
2018-06-05T15:59:54.154Z,70.50
2018-06-05T16:02:26.657Z,70.80
2018-06-05T16:04:59.064Z,70.60
2018-06-05T16:07:31.523Z,70.20
2018-06-05T16:10:04.028Z,70.00
2018-06-05T16:12:36.671Z,69.70
2018-06-05T16:15:09.167Z,70.20
2018-06-05T16:17:41.918Z,69.80
2018-06-05T16:20:15.391Z,69.30
2018-06-05T16:22:48.353Z,69.30
2018-06-05T16:25:21.073Z,70.00
2018-06-05T16:27:53.867Z,70.20
2018-06-05T16:30:26.549Z,70.40
2018-06-05T16:32:59.090Z,69.40
2018-06-05T16:35:31.550Z,68.90
2018-06-05T16:38:04.095Z,68.40
2018-06-05T16:40:36.568Z,68.00
2018-06-05T16:43:09.036Z,68.50
2018-06-05T16:45:41.491Z,67.50
2018-06-05T16:48:13.946Z,67.80
2018-06-05T16:50:46.486Z,68.30
2018-06-05T16:53:19.775Z,68.60
2018-06-05T16:55:52.392Z,68.80
2018-06-05T16:58:26.395Z,68.50
2018-06-05T17:00:59.070Z,68.10
2018-06-05T17:03:32.083Z,68.10
2018-06-05T17:06:04.847Z,68.40
2018-06-05T17:08:37.396Z,68.90
2018-06-05T17:11:10.218Z,67.80
2018-06-05T17:13:44.785Z,68.10
2018-06-05T17:16:18.604Z,68.60
2018-06-05T17:18:51.218Z,68.80
2018-06-05T17:21:23.897Z,68.40
2018-06-05T17:23:57.065Z,68.10
2018-06-05T17:26:29.793Z,68.70
2018-06-05T17:29:02.534Z,68.90
2018-06-05T17:31:35.122Z,72.90
2018-06-05T17:34:07.928Z,68.30
2018-06-05T17:36:40.540Z,66.80
2018-06-05T17:39:13.643Z,65.00
2018-06-05T17:41:46.242Z,64.60
2018-06-05T17:44:19.277Z,62.30
2018-06-05T17:46:52.916Z,60.90
2018-06-05T17:49:25.653Z,61.60
2018-06-05T17:51:58.935Z,60.10
2018-06-05T17:54:31.656Z,58.90
2018-06-05T17:57:04.362Z,57.20
2018-06-05T17:59:37.553Z,57.40
2018-06-05T18:02:10.298Z,56.90
2018-06-05T18:04:43.009Z,55.70
2018-06-05T18:07:16.769Z,54.50
2018-06-05T18:09:49.366Z,53.70
2018-06-05T18:12:22.141Z,53.60
2018-06-05T18:14:54.944Z,52.70
2018-06-05T18:17:27.636Z,52.60
2018-06-05T18:20:01.302Z,52.60
2018-06-05T18:22:34.108Z,52.00
2018-06-05T18:25:06.809Z,51.70
2018-06-05T18:27:39.388Z,50.80
2018-06-05T18:30:11.981Z,50.60
2018-06-05T18:32:44.612Z,48.70
2018-06-05T18:35:17.215Z,47.80
2018-06-05T18:37:50.035Z,44.30
2018-06-05T18:40:23.558Z,41.20
2018-06-05T18:42:56.438Z,41.30
2018-06-05T18:45:28.920Z,38.20
2018-06-05T18:48:01.661Z,35.90
2018-06-05T18:50:34.267Z,36.70
2018-06-05T18:55:39.446Z,37.60
2018-06-05T18:58:12.134Z,38.70
2018-06-05T19:00:44.630Z,40.70
2018-06-05T19:03:17.112Z,41.40
2018-06-05T19:08:22.248Z,43.10
2018-06-05T19:10:54.739Z,44.30
2018-06-05T19:13:27.669Z,45.70
2018-06-05T19:16:00.996Z,46.30
2018-06-05T19:18:33.819Z,46.30
2018-06-05T19:21:06.443Z,47.40
2018-06-05T19:23:39.337Z,48.30
2018-06-05T19:26:12.200Z,48.60
2018-06-05T19:28:45.251Z,50.00
2018-06-05T19:31:18.095Z,51.40
2018-06-05T19:33:50.579Z,50.20
2018-06-05T19:36:23.121Z,49.60
2018-06-05T19:38:55.731Z,49.80
2018-06-05T19:41:28.256Z,47.40
2018-06-05T19:44:00.723Z,47.80
2018-06-05T19:46:33.229Z,47.20
2018-06-05T19:49:05.976Z,47.00
2018-06-05T19:51:38.375Z,46.10
2018-06-05T19:54:11.086Z,45.60
2018-06-05T19:56:45.504Z,45.80
2018-06-05T19:59:20.033Z,46.00
2018-06-05T20:01:53.390Z,46.10
2018-06-05T20:04:27.214Z,46.50
2018-06-05T20:07:01.815Z,45.80
2018-06-05T20:09:35.529Z,45.80
2018-06-05T20:12:08.887Z,46.20
2018-06-05T20:14:42.323Z,45.00
2018-06-05T20:17:14.799Z,44.70
2018-06-05T20:19:47.243Z,44.80
2018-06-05T20:22:19.822Z,44.70
2018-06-05T20:24:52.173Z,44.30
2018-06-05T20:27:24.679Z,44.70
2018-06-05T20:29:57.114Z,44.10
2018-06-05T20:32:29.588Z,44.40
2018-06-05T20:35:02.079Z,44.60
2018-06-05T20:37:34.533Z,44.90
2018-06-05T20:40:06.923Z,45.30
2018-06-05T20:42:39.373Z,45.50
2018-06-05T20:45:12.647Z,45.70
2018-06-05T20:47:46.205Z,46.00
2018-06-05T20:50:18.679Z,46.00
2018-06-05T20:52:51.118Z,46.50
2018-06-05T20:55:23.542Z,46.90
2018-06-05T21:00:28.681Z,47.10
2018-06-05T21:03:01.188Z,48.10
2018-06-05T21:05:33.586Z,48.40
2018-06-05T21:08:06.098Z,48.70
2018-06-05T21:13:10.906Z,63.20
2018-06-05T21:15:43.344Z,50.90
2018-06-05T21:18:15.714Z,50.30
2018-06-05T21:23:20.573Z,51.20
2018-06-05T21:25:53.059Z,51.50
2018-06-05T21:28:25.484Z,52.00
2018-06-05T21:30:57.919Z,52.00
2018-06-05T21:33:30.387Z,52.60
2018-06-05T21:38:35.162Z,52.70
2018-06-05T21:41:07.510Z,61.70
2018-06-05T21:43:40.011Z,53.90
2018-06-05T21:46:12.526Z,54.10
2018-06-05T21:48:45.146Z,54.20
2018-06-05T21:53:49.969Z,57.80
2018-06-05T21:58:55.242Z,56.90
2018-06-05T22:01:27.761Z,60.80
2018-06-05T22:04:00.884Z,59.80
2018-06-05T22:06:33.291Z,58.50
2018-06-05T22:09:07.621Z,56.70
2018-06-05T22:11:40.022Z,60.30
2018-06-05T22:14:12.466Z,56.30
2018-06-05T22:16:44.910Z,56.20
2018-06-05T22:19:17.334Z,56.70
2018-06-05T22:21:49.754Z,56.70
2018-06-05T22:24:22.137Z,56.90
2018-06-05T22:26:54.602Z,57.60
2018-06-05T22:29:27.338Z,58.20
2018-06-05T22:31:59.848Z,58.20
2018-06-05T22:34:32.531Z,58.60
2018-06-05T22:37:04.960Z,59.50
2018-06-05T22:39:37.406Z,59.30
2018-06-05T22:42:09.781Z,59.20
2018-06-05T22:44:42.202Z,60.10
2018-06-05T22:47:14.558Z,60.10
2018-06-05T22:49:47.250Z,60.20
2018-06-05T22:52:19.678Z,60.50
2018-06-05T22:54:52.160Z,60.90
2018-06-05T22:57:24.590Z,63.60
2018-06-05T22:59:57.104Z,69.20
2018-06-05T23:02:29.541Z,62.50
2018-06-05T23:05:02.047Z,62.80
2018-06-05T23:10:08.022Z,64.50
2018-06-05T23:12:40.389Z,64.00
2018-06-05T23:15:12.799Z,63.70
2018-06-05T23:17:45.276Z,64.60
2018-06-05T23:20:17.662Z,65.10
2018-06-05T23:22:50.217Z,65.00
2018-06-05T23:25:22.646Z,65.00
2018-06-05T23:27:55.023Z,65.50
2018-06-05T23:30:27.511Z,66.60
2018-06-05T23:32:59.951Z,66.00
2018-06-05T23:35:32.349Z,66.10
2018-06-05T23:38:04.850Z,66.20
2018-06-05T23:40:37.247Z,66.40
2018-06-05T23:43:09.730Z,66.40
2018-06-05T23:45:42.140Z,66.70
2018-06-05T23:48:14.516Z,66.90
2018-06-05T23:50:46.987Z,67.20
2018-06-05T23:53:19.593Z,67.10
2018-06-05T23:55:51.978Z,67.20
2018-06-05T23:58:24.378Z,68.00
